createdAt,value
2023-12-23T00:01:58.856Z,100.00
2023-12-23T00:04:28.936Z,100.00
2023-12-23T00:06:57.370Z,100.00
2023-12-23T00:09:25.920Z,100.00
2023-12-23T00:11:54.507Z,100.00
2023-12-23T00:14:23.084Z,100.00
2023-12-23T00:16:51.691Z,100.00
2023-12-23T00:19:20.370Z,100.00
2023-12-23T00:21:50.409Z,100.00
2023-12-23T00:24:19.054Z,100.00
2023-12-23T00:26:47.601Z,100.00
2023-12-23T00:29:16.154Z,100.00
2023-12-23T00:31:44.696Z,100.00
2023-12-23T00:34:13.260Z,100.00
2023-12-23T00:36:42.223Z,100.00
2023-12-23T00:39:12.218Z,100.00
2023-12-23T00:41:40.686Z,100.00
2023-12-23T00:44:10.638Z,100.00
2023-12-23T00:46:39.221Z,100.00
2023-12-23T00:49:07.838Z,100.00
2023-12-23T00:51:37.168Z,100.00
2023-12-23T00:54:05.769Z,100.00
2023-12-23T00:56:35.712Z,100.00
2023-12-23T00:59:04.320Z,100.00
2023-12-23T01:01:32.881Z,100.00
2023-12-23T01:04:01.521Z,100.00
2023-12-23T01:06:30.197Z,100.00
2023-12-23T01:08:58.635Z,100.00
2023-12-23T01:11:27.216Z,100.00
2023-12-23T01:13:57.299Z,100.00
2023-12-23T01:16:25.944Z,100.00
2023-12-23T01:18:54.527Z,100.00
2023-12-23T01:21:23.030Z,100.00
2023-12-23T01:23:52.514Z,100.00
2023-12-23T01:26:21.112Z,100.00
2023-12-23T01:28:49.639Z,100.00
2023-12-23T01:31:22.342Z,100.00
2023-12-23T01:33:51.010Z,100.00
2023-12-23T01:36:19.554Z,100.00
2023-12-23T01:38:48.172Z,100.00
2023-12-23T01:41:16.714Z,100.00
2023-12-23T01:43:45.216Z,100.00
2023-12-23T01:46:14.597Z,100.00
2023-12-23T01:48:47.034Z,100.00
2023-12-23T01:51:17.211Z,100.00
2023-12-23T01:53:46.173Z,100.00
2023-12-23T01:56:15.003Z,100.00
2023-12-23T01:58:44.147Z,100.00
2023-12-23T02:01:12.913Z,100.00
2023-12-23T02:03:42.560Z,100.00
2023-12-23T02:06:12.648Z,100.00
2023-12-23T02:08:41.231Z,100.00
2023-12-23T02:11:10.340Z,100.00
2023-12-23T02:13:50.442Z,100.00
2023-12-23T02:16:19.253Z,100.00
2023-12-23T02:18:48.525Z,100.00
2023-12-23T02:21:18.681Z,100.00
2023-12-23T02:23:50.019Z,100.00
2023-12-23T02:26:22.093Z,100.00
2023-12-23T02:28:53.667Z,100.00
2023-12-23T02:31:23.309Z,100.00
2023-12-23T02:33:52.137Z,100.00
2023-12-23T02:36:24.423Z,100.00
2023-12-23T02:38:52.992Z,100.00
2023-12-23T02:41:21.547Z,100.00
2023-12-23T02:43:50.067Z,100.00
2023-12-23T02:46:18.573Z,100.00
2023-12-23T02:48:47.303Z,100.00
2023-12-23T02:51:15.922Z,100.00
2023-12-23T02:53:45.882Z,100.00
2023-12-23T02:56:14.450Z,100.00
2023-12-23T02:58:43.090Z,100.00
2023-12-23T03:01:11.625Z,100.00
2023-12-23T03:03:40.217Z,100.00
2023-12-23T03:06:08.949Z,100.00
2023-12-23T03:08:37.854Z,100.00
2023-12-23T03:11:08.019Z,100.00
2023-12-23T03:13:36.640Z,100.00
2023-12-23T03:16:15.785Z,100.00
2023-12-23T03:18:44.344Z,100.00
2023-12-23T03:21:12.882Z,100.00
2023-12-23T03:23:41.421Z,100.00
2023-12-23T03:26:11.406Z,100.00
2023-12-23T03:28:39.998Z,100.00
2023-12-23T03:31:09.201Z,100.00
2023-12-23T03:33:37.742Z,100.00
2023-12-23T03:36:06.762Z,100.00
2023-12-23T03:38:35.322Z,100.00
2023-12-23T03:41:03.930Z,100.00
2023-12-23T03:43:33.918Z,100.00
2023-12-23T03:46:02.469Z,100.00
2023-12-23T03:48:31.089Z,100.00
2023-12-23T03:50:59.613Z,100.00
2023-12-23T03:53:28.237Z,100.00
2023-12-23T03:55:56.722Z,100.00
2023-12-23T03:58:25.299Z,100.00
2023-12-23T04:00:55.584Z,100.00
2023-12-23T04:03:26.509Z,100.00
2023-12-23T04:05:55.310Z,100.00
2023-12-23T04:08:23.938Z,100.00
2023-12-23T04:10:52.675Z,100.00
2023-12-23T04:13:21.282Z,100.00
2023-12-23T04:15:49.772Z,100.00
2023-12-23T04:18:20.027Z,100.00
2023-12-23T04:20:48.774Z,100.00
2023-12-23T04:23:17.330Z,100.00
2023-12-23T04:25:45.958Z,100.00
2023-12-23T04:28:14.520Z,100.00
2023-12-23T04:30:43.086Z,100.00
2023-12-23T04:33:12.246Z,100.00
2023-12-23T04:35:42.378Z,98.30
2023-12-23T04:38:10.986Z,98.43
2023-12-23T04:40:39.660Z,100.00
2023-12-23T04:43:08.224Z,100.00
2023-12-23T04:45:36.910Z,100.00
2023-12-23T04:48:05.890Z,100.00
2023-12-23T04:50:34.523Z,99.38
2023-12-23T04:53:05.141Z,98.03
2023-12-23T04:55:33.688Z,99.23
2023-12-23T04:58:02.220Z,100.00
2023-12-23T05:00:30.761Z,100.00
2023-12-23T05:02:59.550Z,100.00
2023-12-23T05:05:28.171Z,100.00
2023-12-23T05:07:56.846Z,100.00
2023-12-23T05:10:26.876Z,100.00
2023-12-23T05:12:55.420Z,100.00
2023-12-23T05:15:23.932Z,100.00
2023-12-23T05:17:52.543Z,100.00
2023-12-23T05:20:21.233Z,100.00
2023-12-23T05:22:50.091Z,100.00
2023-12-23T05:25:18.798Z,100.00
2023-12-23T05:27:48.774Z,100.00
2023-12-23T05:30:18.230Z,100.00
2023-12-23T05:32:47.315Z,100.00
2023-12-23T05:35:16.128Z,100.00
2023-12-23T05:37:45.027Z,100.00
2023-12-23T05:40:14.460Z,100.00
2023-12-23T05:42:42.973Z,100.00
2023-12-23T05:45:13.230Z,100.00
2023-12-23T05:47:41.925Z,100.00
2023-12-23T05:50:11.621Z,100.00
2023-12-23T05:52:40.295Z,100.00
2023-12-23T05:55:10.382Z,100.00
2023-12-23T05:57:38.884Z,100.00
2023-12-23T06:00:11.732Z,100.00
2023-12-23T06:02:43.160Z,100.00
2023-12-23T06:05:11.851Z,100.00
2023-12-23T06:07:40.380Z,100.00
2023-12-23T06:10:10.218Z,100.00
2023-12-23T06:12:38.704Z,100.00
2023-12-23T06:15:08.169Z,100.00
2023-12-23T06:17:36.733Z,100.00
2023-12-23T06:20:07.690Z,100.00
2023-12-23T06:22:36.435Z,100.00
2023-12-23T06:25:05.701Z,100.00
2023-12-23T06:27:34.236Z,100.00
2023-12-23T06:30:02.810Z,100.00
2023-12-23T06:32:31.461Z,100.00
2023-12-23T06:35:00.089Z,99.05
2023-12-23T06:37:30.148Z,99.10
2023-12-23T06:40:01.190Z,98.08
2023-12-23T06:42:29.705Z,97.97
2023-12-23T06:44:58.237Z,97.35
2023-12-23T06:47:26.867Z,94.38
2023-12-23T06:49:55.478Z,94.59
2023-12-23T06:52:24.399Z,94.71
2023-12-23T06:54:54.369Z,95.47
2023-12-23T06:57:22.773Z,94.12
2023-12-23T06:59:51.286Z,92.36
2023-12-23T07:02:19.986Z,90.35
2023-12-23T07:04:48.762Z,89.80
2023-12-23T07:07:17.284Z,87.89
2023-12-23T07:09:47.175Z,89.08
2023-12-23T07:12:19.132Z,87.42
2023-12-23T07:14:48.258Z,86.56
2023-12-23T07:17:20.556Z,84.14
2023-12-23T07:19:51.179Z,88.99
2023-12-23T07:22:19.682Z,91.13
2023-12-23T07:24:48.281Z,86.88
2023-12-23T07:27:18.421Z,77.41
2023-12-23T07:29:48.028Z,80.80
2023-12-23T07:32:16.844Z,76.08
2023-12-23T07:34:45.425Z,73.33
2023-12-23T07:37:14.128Z,72.01
2023-12-23T07:39:42.686Z,70.12
2023-12-23T07:42:10.214Z,66.83
2023-12-23T07:44:40.208Z,71.55
2023-12-23T07:47:10.806Z,66.87
2023-12-23T07:49:39.671Z,67.20
2023-12-23T07:52:09.403Z,64.13
2023-12-23T07:54:38.013Z,63.24
2023-12-23T07:57:07.200Z,64.29
2023-12-23T07:59:35.949Z,62.60
2023-12-23T08:02:06.194Z,62.03
2023-12-23T08:04:34.736Z,59.09
2023-12-23T08:07:03.653Z,58.50
2023-12-23T08:09:32.197Z,57.18
2023-12-23T08:12:00.808Z,58.96
2023-12-23T08:14:29.343Z,58.44
2023-12-23T08:16:57.812Z,57.93
2023-12-23T08:19:27.906Z,55.46
2023-12-23T08:21:56.410Z,54.57
2023-12-23T08:24:24.958Z,53.51
2023-12-23T08:26:53.523Z,54.51
2023-12-23T08:29:22.119Z,53.35
2023-12-23T08:31:50.751Z,53.13
2023-12-23T08:34:22.339Z,50.50
2023-12-23T08:36:52.541Z,53.54
2023-12-23T08:39:21.283Z,53.27
2023-12-23T08:41:49.842Z,52.28
2023-12-23T08:44:18.995Z,51.88
2023-12-23T08:46:47.637Z,52.87
2023-12-23T08:49:16.337Z,50.27
2023-12-23T08:51:45.151Z,49.06
2023-12-23T08:54:15.147Z,48.23
2023-12-23T08:56:43.710Z,47.48
2023-12-23T08:59:12.305Z,47.83
2023-12-23T09:01:41.116Z,47.25
2023-12-23T09:04:09.728Z,46.59
2023-12-23T09:06:38.413Z,46.07
2023-12-23T09:09:07.031Z,47.06
2023-12-23T09:11:43.886Z,46.48
2023-12-23T09:14:13.566Z,46.91
2023-12-23T09:16:42.174Z,47.65
2023-12-23T09:19:10.900Z,46.25
2023-12-23T09:21:39.512Z,45.83
2023-12-23T09:24:08.293Z,47.15
2023-12-23T09:26:38.281Z,53.74
2023-12-23T09:29:06.897Z,50.37
2023-12-23T09:31:35.770Z,49.34
2023-12-23T09:34:04.445Z,47.98
2023-12-23T09:36:33.179Z,51.33
2023-12-23T09:39:01.721Z,49.85
2023-12-23T09:41:30.389Z,45.43
2023-12-23T09:44:00.689Z,43.74
2023-12-23T09:46:29.636Z,43.22
2023-12-23T09:48:58.287Z,45.05
2023-12-23T09:51:29.488Z,43.77
2023-12-23T09:54:00.688Z,42.54
2023-12-23T09:56:30.452Z,43.18
2023-12-23T09:59:00.414Z,40.60
2023-12-23T10:01:29.053Z,42.50
2023-12-23T10:03:57.525Z,43.80
2023-12-23T10:06:26.607Z,44.28
2023-12-23T10:08:55.329Z,43.87
2023-12-23T10:11:25.930Z,43.75
2023-12-23T10:13:55.046Z,42.09
2023-12-23T10:16:25.126Z,42.00
2023-12-23T10:18:53.785Z,40.18
2023-12-23T10:21:22.472Z,39.52
2023-12-23T10:23:51.064Z,40.71
2023-12-23T10:26:19.639Z,41.05
2023-12-23T10:28:57.022Z,40.27
2023-12-23T10:31:32.212Z,41.02
2023-12-23T10:34:05.039Z,38.96
2023-12-23T10:36:34.060Z,39.53
2023-12-23T10:39:05.094Z,39.50
2023-12-23T10:41:46.141Z,39.59
2023-12-23T10:44:15.403Z,38.47
2023-12-23T10:46:47.186Z,38.10
2023-12-23T10:49:16.851Z,39.93
2023-12-23T10:51:46.624Z,40.07
2023-12-23T10:54:15.888Z,39.31
2023-12-23T10:56:46.605Z,40.33
2023-12-23T10:59:15.297Z,39.17
2023-12-23T11:01:48.049Z,38.93
2023-12-23T11:04:16.612Z,37.20
2023-12-23T11:06:48.946Z,38.54
2023-12-23T11:09:18.933Z,38.25
2023-12-23T11:11:48.999Z,38.50
2023-12-23T11:14:17.638Z,38.93
2023-12-23T11:16:47.664Z,39.18
2023-12-23T11:19:16.290Z,38.76
2023-12-23T11:21:44.926Z,39.88
2023-12-23T11:24:34.890Z,37.80
2023-12-23T11:27:03.596Z,38.55
2023-12-23T11:29:32.154Z,39.30
2023-12-23T11:32:17.110Z,38.33
2023-12-23T11:34:47.615Z,38.83
2023-12-23T11:37:16.219Z,37.94
2023-12-23T11:39:45.872Z,37.05
2023-12-23T11:42:15.354Z,36.67
2023-12-23T11:44:45.576Z,36.94
2023-12-23T11:47:14.518Z,37.02
2023-12-23T11:49:46.444Z,37.00
2023-12-23T11:52:15.243Z,35.79
2023-12-23T11:54:45.619Z,38.81
2023-12-23T11:57:14.384Z,36.92
2023-12-23T11:59:43.702Z,36.25
2023-12-23T12:02:12.763Z,35.98
2023-12-23T12:04:41.902Z,35.42
2023-12-23T12:07:12.156Z,34.66
2023-12-23T12:09:40.876Z,36.20
2023-12-23T12:12:09.946Z,36.86
2023-12-23T12:14:38.474Z,36.66
2023-12-23T12:17:10.176Z,37.97
2023-12-23T12:19:39.083Z,35.97
2023-12-23T12:22:08.091Z,35.84
2023-12-23T12:24:39.165Z,37.91
2023-12-23T12:27:07.741Z,37.74
2023-12-23T12:29:36.333Z,37.52
2023-12-23T12:32:05.123Z,36.31
2023-12-23T12:34:33.627Z,36.56
2023-12-23T12:37:03.816Z,37.26
2023-12-23T12:39:32.683Z,37.18
2023-12-23T12:42:02.645Z,37.01
2023-12-23T12:44:31.260Z,37.48
2023-12-23T12:46:59.951Z,38.82
2023-12-23T12:49:28.489Z,37.85
2023-12-23T12:51:57.056Z,38.81
2023-12-23T12:54:27.146Z,38.06
2023-12-23T12:56:55.853Z,38.40
2023-12-23T12:59:25.871Z,38.96
2023-12-23T13:01:55.198Z,39.69
2023-12-23T13:04:23.792Z,40.45
2023-12-23T13:06:52.414Z,41.47
2023-12-23T13:09:20.906Z,40.79
2023-12-23T13:11:49.440Z,39.83
2023-12-23T13:14:17.980Z,39.84
2023-12-23T13:16:47.968Z,40.01
2023-12-23T13:19:16.638Z,40.60
2023-12-23T13:21:45.307Z,41.64
2023-12-23T13:24:14.745Z,42.68
2023-12-23T13:26:43.292Z,43.44
2023-12-23T13:29:11.896Z,42.85
2023-12-23T13:31:40.409Z,41.83
2023-12-23T13:34:11.955Z,41.41
2023-12-23T13:36:41.085Z,41.80
2023-12-23T13:39:09.848Z,41.19
2023-12-23T13:41:38.488Z,40.46
2023-12-23T13:44:07.558Z,40.53
2023-12-23T13:46:36.310Z,39.91
2023-12-23T13:49:05.036Z,40.25
2023-12-23T13:51:35.378Z,40.74
2023-12-23T13:54:03.957Z,40.68
2023-12-23T13:56:32.549Z,41.74
2023-12-23T13:59:01.203Z,41.38
2023-12-23T14:01:29.702Z,41.74
2023-12-23T14:03:58.159Z,43.55
2023-12-23T14:06:26.808Z,44.16
2023-12-23T14:08:56.856Z,46.32
2023-12-23T14:11:25.557Z,49.94
2023-12-23T14:13:54.214Z,53.15
2023-12-23T14:16:22.711Z,52.20
2023-12-23T14:18:51.321Z,53.39
2023-12-23T14:21:19.810Z,53.04
2023-12-23T14:23:48.819Z,51.74
2023-12-23T14:26:18.929Z,53.81
2023-12-23T14:28:47.523Z,54.93
2023-12-23T14:31:16.202Z,53.94
2023-12-23T14:33:44.877Z,54.17
2023-12-23T14:36:13.525Z,54.61
2023-12-23T14:38:42.245Z,57.13
2023-12-23T14:41:11.119Z,60.61
2023-12-23T14:43:41.026Z,60.64
2023-12-23T14:46:10.340Z,59.22
2023-12-23T14:48:39.240Z,57.87
2023-12-23T14:51:07.978Z,57.82
2023-12-23T14:53:36.658Z,57.04
2023-12-23T14:56:05.673Z,56.12
2023-12-23T14:58:34.270Z,54.97
2023-12-23T15:01:04.293Z,57.23
2023-12-23T15:03:32.783Z,55.51
2023-12-23T15:06:02.344Z,57.81
2023-12-23T15:08:31.067Z,55.48
2023-12-23T15:10:59.573Z,57.22
2023-12-23T15:13:28.215Z,56.35
2023-12-23T15:15:56.830Z,55.41
2023-12-23T15:18:26.775Z,55.98
2023-12-23T15:20:55.458Z,55.83
2023-12-23T15:23:24.099Z,52.77
2023-12-23T15:25:52.672Z,53.80
2023-12-23T15:28:21.381Z,53.15
2023-12-23T15:30:56.372Z,52.65
2023-12-23T15:33:27.088Z,53.50
2023-12-23T15:35:56.737Z,53.67
2023-12-23T15:38:25.362Z,56.58
2023-12-23T15:40:53.962Z,58.28
2023-12-23T15:43:22.564Z,58.76
2023-12-23T15:45:51.173Z,55.98
2023-12-23T15:48:19.965Z,56.81
2023-12-23T15:50:50.978Z,56.64
2023-12-23T15:53:19.863Z,57.57
2023-12-23T15:55:48.507Z,58.06
2023-12-23T15:58:17.160Z,57.02
2023-12-23T16:00:45.824Z,57.24
2023-12-23T16:03:14.530Z,57.55
2023-12-23T16:05:43.141Z,57.24
2023-12-23T16:08:13.104Z,61.46
2023-12-23T16:10:41.742Z,59.45
2023-12-23T16:13:13.795Z,60.00
2023-12-23T16:15:42.389Z,58.80
2023-12-23T16:18:11.117Z,59.29
2023-12-23T16:20:39.819Z,59.41
2023-12-23T16:23:08.456Z,59.22
2023-12-23T16:25:38.474Z,59.73
2023-12-23T16:28:07.306Z,58.68
2023-12-23T16:30:36.822Z,59.00
2023-12-23T16:33:05.666Z,58.55
2023-12-23T16:35:34.364Z,59.08
2023-12-23T16:38:03.188Z,59.18
2023-12-23T16:40:31.921Z,58.93
2023-12-23T16:43:01.866Z,59.91
2023-12-23T16:45:30.619Z,60.21
2023-12-23T16:47:59.423Z,60.68
2023-12-23T16:50:27.963Z,61.70
2023-12-23T16:52:56.840Z,62.42
2023-12-23T16:55:25.559Z,62.81
2023-12-23T16:57:54.197Z,61.92
2023-12-23T17:00:25.182Z,61.69
2023-12-23T17:02:54.082Z,62.48
2023-12-23T17:05:22.875Z,62.69
2023-12-23T17:07:51.660Z,62.07
2023-12-23T17:10:20.401Z,61.68
2023-12-23T17:12:49.333Z,63.32
2023-12-23T17:15:18.171Z,63.27
2023-12-23T17:17:48.231Z,64.55
2023-12-23T17:20:17.005Z,64.93
2023-12-23T17:22:45.620Z,65.04
2023-12-23T17:25:14.197Z,66.62
2023-12-23T17:27:42.854Z,67.07
2023-12-23T17:30:11.913Z,65.59
2023-12-23T17:32:40.699Z,66.72
2023-12-23T17:35:11.882Z,66.40
2023-12-23T17:37:40.503Z,66.82
2023-12-23T17:40:10.287Z,67.28
2023-12-23T17:42:38.917Z,67.88
2023-12-23T17:45:08.401Z,68.43
2023-12-23T17:47:37.385Z,67.97
2023-12-23T17:50:06.985Z,66.97
2023-12-23T17:52:36.995Z,66.31
2023-12-23T17:55:06.263Z,66.49
2023-12-23T17:57:34.863Z,68.31
2023-12-23T18:00:03.513Z,68.54
2023-12-23T18:02:33.151Z,68.09
2023-12-23T18:05:02.078Z,69.70
2023-12-23T18:07:33.517Z,69.89
2023-12-23T18:10:04.653Z,69.48
2023-12-23T18:12:34.388Z,71.30
2023-12-23T18:15:03.085Z,73.78
2023-12-23T18:17:32.042Z,72.93
2023-12-23T18:20:00.788Z,72.71
2023-12-23T18:22:29.332Z,71.90
2023-12-23T18:24:58.059Z,71.35
2023-12-23T18:27:27.990Z,73.87
2023-12-23T18:29:56.479Z,74.64
2023-12-23T18:32:25.114Z,74.19
2023-12-23T18:34:53.770Z,72.77
2023-12-23T18:37:22.341Z,72.67
2023-12-23T18:39:50.846Z,73.62
2023-12-23T18:42:19.383Z,73.20
2023-12-23T18:44:49.433Z,72.22
2023-12-23T18:47:17.989Z,72.66
2023-12-23T18:49:47.266Z,72.14
2023-12-23T18:52:15.807Z,77.61
2023-12-23T18:54:44.275Z,75.97
2023-12-23T18:57:12.896Z,78.59
2023-12-23T18:59:41.521Z,84.64
2023-12-23T19:02:12.905Z,82.23
2023-12-23T19:04:41.595Z,78.70
2023-12-23T19:07:10.373Z,78.73
2023-12-23T19:09:38.886Z,77.38
2023-12-23T19:12:07.623Z,77.08
2023-12-23T19:14:36.221Z,78.39
2023-12-23T19:17:05.042Z,76.88
2023-12-23T19:19:35.077Z,78.00
2023-12-23T19:22:03.735Z,76.22
2023-12-23T19:24:32.257Z,77.62
2023-12-23T19:27:00.945Z,75.72
2023-12-23T19:29:29.553Z,76.39
2023-12-23T19:31:58.265Z,74.44
2023-12-23T19:34:26.907Z,74.99
2023-12-23T19:36:56.928Z,74.35
2023-12-23T19:39:25.438Z,74.35
2023-12-23T19:41:54.549Z,74.17
2023-12-23T19:44:25.743Z,74.00
2023-12-23T19:46:54.362Z,75.55
2023-12-23T19:49:22.845Z,74.08
2023-12-23T19:51:51.465Z,72.16
2023-12-23T19:54:21.433Z,72.29
2023-12-23T19:56:50.792Z,73.99
2023-12-23T19:59:19.553Z,73.86
2023-12-23T20:01:48.991Z,74.16
2023-12-23T20:04:17.562Z,74.79
2023-12-23T20:06:46.193Z,73.96
2023-12-23T20:09:16.415Z,75.56
2023-12-23T20:11:46.329Z,77.34
2023-12-23T20:14:14.826Z,79.42
2023-12-23T20:16:43.488Z,80.08
2023-12-23T20:19:14.009Z,80.01
2023-12-23T20:21:42.669Z,78.76
2023-12-23T20:24:12.122Z,77.06
2023-12-23T20:26:40.685Z,77.56
2023-12-23T20:29:10.655Z,76.72
2023-12-23T20:31:39.416Z,77.10
2023-12-23T20:34:08.367Z,77.22
2023-12-23T20:36:40.160Z,77.41
2023-12-23T20:39:08.866Z,76.62
2023-12-23T20:41:40.540Z,76.30
2023-12-23T20:44:13.990Z,76.21
2023-12-23T20:46:42.572Z,76.28
2023-12-23T20:49:11.804Z,76.63
2023-12-23T20:51:41.313Z,76.48
2023-12-23T20:54:09.912Z,76.75
2023-12-23T20:56:38.447Z,77.34
2023-12-23T20:59:08.023Z,78.64
2023-12-23T21:01:38.131Z,77.92
2023-12-23T21:04:08.693Z,76.64
2023-12-23T21:06:37.352Z,78.43
2023-12-23T21:09:08.999Z,76.51
2023-12-23T21:11:37.625Z,76.83
2023-12-23T21:14:06.204Z,76.67
2023-12-23T21:16:34.718Z,76.74
2023-12-23T21:19:04.926Z,76.93
2023-12-23T21:21:33.449Z,77.34
2023-12-23T21:24:05.098Z,76.64
2023-12-23T21:26:33.717Z,77.87
2023-12-23T21:29:02.294Z,77.46
2023-12-23T21:31:30.808Z,77.70
2023-12-23T21:33:59.467Z,79.28
2023-12-23T21:36:33.054Z,78.78
2023-12-23T21:39:01.627Z,78.37
2023-12-23T21:41:30.206Z,78.57
2023-12-23T21:43:58.909Z,81.19
2023-12-23T21:46:29.036Z,83.80
2023-12-23T21:48:59.059Z,81.76
2023-12-23T21:51:29.233Z,80.29
2023-12-23T21:53:57.819Z,79.26
2023-12-23T21:56:26.391Z,79.71
2023-12-23T21:58:55.114Z,80.13
2023-12-23T22:01:23.592Z,79.86
2023-12-23T22:03:52.210Z,79.80
2023-12-23T22:06:21.589Z,80.28
2023-12-23T22:08:52.158Z,78.82
2023-12-23T22:11:19.687Z,78.87
2023-12-23T22:13:48.219Z,78.56
2023-12-23T22:16:16.982Z,79.79
2023-12-23T22:18:46.010Z,80.34
2023-12-23T22:21:14.550Z,79.80
2023-12-23T22:23:43.281Z,79.87
2023-12-23T22:26:14.497Z,80.59
2023-12-23T22:28:43.894Z,81.35
2023-12-23T22:31:12.486Z,80.24
2023-12-23T22:33:41.184Z,81.36
2023-12-23T22:36:11.792Z,80.88
2023-12-23T22:38:40.904Z,81.50
2023-12-23T22:41:11.749Z,83.04
2023-12-23T22:43:41.754Z,81.92
2023-12-23T22:46:10.304Z,82.44
2023-12-23T22:48:39.027Z,83.80
2023-12-23T22:51:08.488Z,82.65
2023-12-23T22:53:37.196Z,83.05
2023-12-23T22:56:06.340Z,82.31
2023-12-23T22:58:35.443Z,81.55
2023-12-23T23:01:05.841Z,81.46
2023-12-23T23:03:34.489Z,81.14
2023-12-23T23:06:03.106Z,80.56
2023-12-23T23:08:31.814Z,80.24
2023-12-23T23:11:00.456Z,80.64
2023-12-23T23:13:29.074Z,81.10
2023-12-23T23:15:58.684Z,81.17
2023-12-23T23:18:28.788Z,82.14
2023-12-23T23:20:57.401Z,82.71
2023-12-23T23:23:26.133Z,82.11
2023-12-23T23:25:54.747Z,82.07
2023-12-23T23:28:23.371Z,82.41
2023-12-23T23:30:51.897Z,81.64
2023-12-23T23:33:20.856Z,82.05
2023-12-23T23:35:51.384Z,83.12
2023-12-23T23:38:19.975Z,83.67
2023-12-23T23:40:51.770Z,86.61
2023-12-23T23:43:21.037Z,86.61
2023-12-23T23:45:49.609Z,89.26
2023-12-23T23:48:18.144Z,87.59
2023-12-23T23:50:46.682Z,87.89
2023-12-23T23:53:16.741Z,89.51
2023-12-23T23:55:45.553Z,89.50
2023-12-23T23:58:14.165Z,88.28
